createdAt,value
2023-04-28T00:00:40.769Z,0
2023-04-28T00:11:19.073Z,0
2023-04-28T00:16:40.349Z,0
2023-04-28T00:21:57.071Z,0
2023-04-28T00:27:16.463Z,0
2023-04-28T00:32:36.040Z,0
2023-04-28T00:37:55.201Z,0
2023-04-28T00:43:14.040Z,0
2023-04-28T00:48:33.291Z,0
2023-04-28T00:53:52.258Z,0
2023-04-28T00:59:11.310Z,0
2023-04-28T01:04:30.545Z,0
2023-04-28T01:25:47.994Z,0
2023-04-28T01:31:06.234Z,0
2023-04-28T01:36:25.239Z,0
2023-04-28T01:41:44.978Z,0
2023-04-28T01:47:04.228Z,0
2023-04-28T01:52:23.463Z,0
2023-04-28T01:57:42.879Z,0
2023-04-28T02:03:01.886Z,0
2023-04-28T02:08:20.875Z,0
2023-04-28T02:13:40.441Z,0
2023-04-28T02:19:00.122Z,0
2023-04-28T02:24:19.810Z,0
2023-04-28T02:29:39.249Z,0
2023-04-28T02:40:18.580Z,0
2023-04-28T02:45:37.382Z,0
2023-04-28T02:50:56.414Z,0
2023-04-28T02:56:15.473Z,0
2023-04-28T03:01:34.418Z,0
2023-04-28T03:06:53.272Z,0
2023-04-28T03:12:11.992Z,0
2023-04-28T03:22:49.586Z,0
2023-04-28T03:33:28.859Z,0
2023-04-28T03:38:48.444Z,0
2023-04-28T03:44:08.102Z,0
2023-04-28T03:49:27.200Z,0
2023-04-28T03:54:46.258Z,0
2023-04-28T04:00:05.320Z,0
2023-04-28T04:05:25.052Z,4
2023-04-28T04:10:45.682Z,11
2023-04-28T04:16:03.073Z,18
2023-04-28T04:21:21.942Z,27.05
2023-04-28T04:26:40.636Z,30.4
2023-04-28T04:31:59.417Z,34.05
2023-04-28T04:37:18.715Z,35.44
2023-04-28T04:47:57.587Z,41.35
2023-04-28T04:53:17.469Z,54.4
2023-04-28T04:58:36.598Z,48.6
2023-04-28T05:03:55.957Z,46
2023-04-28T05:14:34.340Z,63.14
2023-04-28T05:19:53.727Z,56.85
2023-04-28T05:25:13.317Z,59.14
2023-04-28T05:30:32.747Z,88.3
2023-04-28T05:35:51.646Z,113.44
2023-04-28T05:41:10.751Z,94.85
2023-04-28T05:46:31.183Z,67.89
2023-04-28T05:51:49.209Z,83.8
2023-04-28T06:02:28.156Z,131.54
2023-04-28T06:07:47.760Z,141.94
2023-04-28T06:13:05.213Z,107.85
2023-04-28T06:18:24.521Z,485.16
2023-04-28T06:29:03.384Z,618.36
2023-04-28T06:34:22.153Z,651.66
2023-04-28T06:39:41.773Z,633.16
2023-04-28T06:45:01.336Z,588.76
2023-04-28T06:55:39.429Z,644.26
2023-04-28T07:00:58.465Z,644.26
2023-04-28T07:11:36.976Z,540.66
2023-04-28T07:12:02.021Z,555.46
2023-04-28T07:17:21.220Z,485.16
2023-04-28T07:22:40.242Z,518.47
2023-04-28T07:27:59.462Z,548.06
2023-04-28T07:33:18.348Z,640.56
2023-04-28T07:38:37.824Z,603.56
2023-04-28T07:43:57.505Z,633.16
2023-04-28T07:49:16.931Z,0
2023-04-28T07:54:37.146Z,433.36
2023-04-28T08:05:15.439Z,366.76
2023-04-28T08:10:34.097Z,0
2023-04-28T08:15:53.080Z,499.97
2023-04-28T08:21:12.734Z,559.16
2023-04-28T08:26:32.049Z,488.86
2023-04-28T08:31:51.542Z,425.96
2023-04-28T08:37:11.093Z,444.46
2023-04-28T08:47:49.384Z,455.56
2023-04-28T08:53:08.963Z,488.86
2023-04-28T08:58:28.311Z,459.26
2023-04-28T09:03:47.958Z,499.97
2023-04-28T09:09:06.692Z,533.26
2023-04-28T09:14:25.757Z,507.36
2023-04-28T09:19:45.215Z,0
2023-04-28T09:25:03.963Z,408.54
2023-04-28T09:35:43.289Z,626.69
2023-04-28T09:46:22.457Z,392.34
2023-04-28T09:51:41.733Z,320.9
2023-04-28T10:02:41.498Z,286.54
2023-04-28T10:07:38.789Z,312.44
2023-04-28T10:12:58.007Z,298.15
2023-04-28T10:18:16.939Z,321.09
2023-04-28T10:23:36.228Z,287.15
2023-04-28T10:28:55.620Z,424.94
2023-04-28T10:34:14.587Z,469.25
2023-04-28T10:39:33.658Z,353.94
2023-04-28T10:44:53.216Z,476.09
2023-04-28T10:50:12.323Z,475.9
2023-04-28T11:00:50.694Z,442.25
2023-04-28T11:06:09.697Z,491.65
2023-04-28T11:11:29.140Z,592.69
2023-04-28T11:16:49.004Z,650.14
2023-04-28T11:22:08.024Z,483.75
2023-04-28T11:27:26.967Z,437.34
2023-04-28T11:32:46.431Z,519.65
2023-04-28T11:38:05.963Z,241.69
2023-04-28T11:43:28.902Z,139.33
2023-04-28T11:48:43.733Z,22.23
2023-04-28T11:54:02.727Z,513.79
2023-04-28T12:04:41.621Z,489.9
2023-04-28T12:10:01.154Z,364
2023-04-28T12:15:21.773Z,349.9
2023-04-28T12:20:40.497Z,349.09
2023-04-28T12:25:59.489Z,247.7
2023-04-28T12:31:18.434Z,252.89
2023-04-28T12:41:56.617Z,268.79
2023-04-28T12:47:15.889Z,158.35
2023-04-28T12:52:35.461Z,178.15
2023-04-28T12:57:54.775Z,163.69
2023-04-28T13:03:14.076Z,152.89
2023-04-28T13:08:32.808Z,127.35
2023-04-28T13:13:51.968Z,154.54
2023-04-28T13:19:11.365Z,127.3
2023-04-28T13:24:30.275Z,216.84
2023-04-28T13:35:08.924Z,232.84
2023-04-28T13:40:28.222Z,173.35
2023-04-28T13:45:47.543Z,210.85
2023-04-28T13:51:06.783Z,153.1
2023-04-28T13:56:26.209Z,169.75
2023-04-28T14:07:05.075Z,202.45
2023-04-28T14:12:24.295Z,183.09
2023-04-28T14:17:43.171Z,203.2
2023-04-28T14:28:21.582Z,228.25
2023-04-28T14:33:41.146Z,163.54
2023-04-28T14:39:00.259Z,162
2023-04-28T14:44:19.857Z,188.25
2023-04-28T14:49:39.551Z,188.79
2023-04-28T14:54:58.733Z,488.75
2023-04-28T15:00:18.218Z,301.25
2023-04-28T15:10:56.443Z,149.04
2023-04-28T15:16:15.523Z,188.25
2023-04-28T15:21:43.494Z,127
2023-04-28T15:26:53.521Z,180.75
2023-04-28T15:32:13.195Z,198.59
2023-04-28T15:37:32.013Z,183.09
2023-04-28T15:42:51.355Z,153.44
2023-04-28T15:48:09.980Z,184.29
2023-04-28T15:53:28.788Z,169.25
2023-04-28T15:58:47.610Z,158.64
2023-04-28T16:04:07.538Z,126.39
2023-04-28T16:09:26.128Z,83.64
2023-04-28T16:14:45.551Z,147.29
2023-04-28T16:25:24.715Z,238.34
2023-04-28T16:30:43.491Z,194.45
2023-04-28T16:36:02.827Z,300.4
2023-04-28T16:41:22.451Z,285.29
2023-04-28T16:46:41.872Z,199.45
2023-04-28T16:52:01.033Z,176.45
2023-04-28T16:57:20.039Z,132.85
2023-04-28T17:07:58.617Z,113.89
2023-04-28T17:13:17.727Z,112
2023-04-28T17:18:37.405Z,152.75
2023-04-28T17:23:57.040Z,147.79
2023-04-28T17:29:16.081Z,192.59
2023-04-28T17:34:35.632Z,97.6
2023-04-28T17:39:54.903Z,85.59
2023-04-28T17:45:13.867Z,73.59
2023-04-28T17:50:32.957Z,69.14
2023-04-28T17:55:52.342Z,60.5
2023-04-28T18:06:30.366Z,44.19
2023-04-28T18:11:49.064Z,41.94
2023-04-28T18:17:07.813Z,38.59
2023-04-28T18:22:27.161Z,27.4
2023-04-28T18:27:46.594Z,27.1
2023-04-28T18:33:05.790Z,18
2023-04-28T18:38:25.410Z,15
2023-04-28T18:43:44.017Z,9
2023-04-28T18:49:03.531Z,4
2023-04-28T18:54:23.030Z,0
2023-04-28T18:59:41.864Z,0
2023-04-28T19:05:01.207Z,0
2023-04-28T19:10:19.971Z,0
2023-04-28T19:15:39.681Z,0
2023-04-28T19:20:59.092Z,0
2023-04-28T19:26:18.692Z,0
2023-04-28T19:31:37.626Z,0
2023-04-28T19:36:57.105Z,0
2023-04-28T19:47:35.246Z,0
2023-04-28T19:58:14.143Z,0
2023-04-28T20:03:33.319Z,0
2023-04-28T20:08:52.742Z,0
2023-04-28T20:14:11.680Z,0
2023-04-28T20:19:30.525Z,0
2023-04-28T20:30:08.707Z,0
2023-04-28T20:40:47.176Z,0
2023-04-28T20:46:06.702Z,0
2023-04-28T20:51:26.415Z,0
2023-04-28T20:56:45.980Z,0
2023-04-28T21:02:05.445Z,0
2023-04-28T21:07:24.704Z,0
2023-04-28T21:12:44.259Z,0
2023-04-28T21:23:22.002Z,0
2023-04-28T21:33:59.950Z,0
2023-04-28T21:39:19.090Z,0
2023-04-28T21:49:56.951Z,0
2023-04-28T21:55:24.578Z,0
2023-04-28T22:00:35.991Z,0
2023-04-28T22:05:55.280Z,0
2023-04-28T22:11:14.645Z,0
2023-04-28T22:16:34.361Z,0
2023-04-28T22:21:53.827Z,0
2023-04-28T22:27:13.486Z,0
2023-04-28T22:32:32.553Z,0
2023-04-28T22:37:52.139Z,0
2023-04-28T22:43:11.625Z,0
2023-04-28T22:48:31.167Z,0
2023-04-28T23:04:30.171Z,0
2023-04-28T23:09:48.774Z,0
2023-04-28T23:15:07.613Z,0
2023-04-28T23:20:26.651Z,0
2023-04-28T23:25:45.966Z,0
2023-04-28T23:31:05.550Z,0
2023-04-28T23:36:25.030Z,0
2023-04-28T23:41:44.274Z,0
2023-04-28T23:47:03.443Z,0
2023-04-28T23:52:23.156Z,0
2023-04-28T23:57:41.914Z,651.66
